createdAt,value
2018-06-29T00:02:01.913Z,95.00
2018-06-29T00:04:32.290Z,95.30
2018-06-29T00:07:03.447Z,95.40
2018-06-29T00:09:33.836Z,95.30
2018-06-29T00:12:04.211Z,95.20
2018-06-29T00:14:41.933Z,95.20
2018-06-29T00:17:12.311Z,95.10
2018-06-29T00:19:42.702Z,95.20
2018-06-29T00:22:13.382Z,95.50
2018-06-29T00:24:43.758Z,95.60
2018-06-29T00:27:14.135Z,95.90
2018-06-29T00:29:44.541Z,96.10
2018-06-29T00:32:15.683Z,95.90
2018-06-29T00:34:46.758Z,95.90
2018-06-29T00:37:19.203Z,95.90
2018-06-29T00:39:49.586Z,96.20
2018-06-29T00:42:19.954Z,96.00
2018-06-29T00:47:38.286Z,95.30
2018-06-29T00:50:08.676Z,95.80
2018-06-29T00:52:39.054Z,96.60
2018-06-29T00:55:09.429Z,96.40
2018-06-29T00:57:39.821Z,96.50
2018-06-29T01:00:13.385Z,96.50
2018-06-29T01:02:43.774Z,96.50
2018-06-29T01:05:14.144Z,95.80
2018-06-29T01:07:44.455Z,96.00
2018-06-29T01:10:14.853Z,96.50
2018-06-29T01:12:45.221Z,96.50
2018-06-29T01:15:15.618Z,96.20
2018-06-29T01:17:46.016Z,96.30
2018-06-29T01:20:16.388Z,96.20
2018-06-29T01:22:46.760Z,96.00
2018-06-29T01:25:17.143Z,95.80
2018-06-29T01:27:47.510Z,96.10
2018-06-29T01:30:17.881Z,96.30
2018-06-29T01:32:48.217Z,96.30
2018-06-29T01:35:18.591Z,96.30
2018-06-29T01:37:49.612Z,96.40
2018-06-29T01:40:20.024Z,96.60
2018-06-29T01:42:50.425Z,96.70
2018-06-29T01:45:20.805Z,96.70
2018-06-29T01:47:51.205Z,96.80
2018-06-29T01:50:21.578Z,96.70
2018-06-29T01:52:51.953Z,96.80
2018-06-29T01:55:22.364Z,96.70
2018-06-29T01:57:55.724Z,96.70
2018-06-29T02:00:26.105Z,96.90
2018-06-29T02:02:56.495Z,96.70
2018-06-29T02:05:26.810Z,96.90
2018-06-29T02:07:57.201Z,96.70
2018-06-29T02:10:27.514Z,96.70
2018-06-29T02:12:57.881Z,96.60
2018-06-29T02:15:28.244Z,96.60
2018-06-29T02:17:58.644Z,97.10
2018-06-29T02:20:29.028Z,97.20
2018-06-29T02:22:59.399Z,97.40
2018-06-29T02:25:29.968Z,97.30
2018-06-29T02:28:00.333Z,97.10
2018-06-29T02:30:31.547Z,97.50
2018-06-29T02:33:02.634Z,97.80
2018-06-29T02:35:33.008Z,97.70
2018-06-29T02:38:04.406Z,97.50
2018-06-29T02:40:34.813Z,97.90
2018-06-29T02:43:05.885Z,98.00
2018-06-29T02:45:36.245Z,98.00
2018-06-29T02:48:06.644Z,98.00
2018-06-29T02:50:37.021Z,98.10
2018-06-29T02:53:07.397Z,98.00
2018-06-29T02:55:37.817Z,98.40
2018-06-29T02:58:08.186Z,98.60
2018-06-29T03:00:38.551Z,98.40
2018-06-29T03:03:09.648Z,98.60
2018-06-29T03:05:40.007Z,98.60
2018-06-29T03:08:10.376Z,98.50
2018-06-29T03:10:44.897Z,98.90
2018-06-29T03:13:17.318Z,99.30
2018-06-29T03:15:47.698Z,98.90
2018-06-29T03:18:18.092Z,99.20
2018-06-29T03:20:49.227Z,99.20
2018-06-29T03:23:19.588Z,99.20
2018-06-29T03:25:50.170Z,99.50
2018-06-29T03:28:20.553Z,99.20
2018-06-29T03:30:52.974Z,99.20
2018-06-29T03:33:23.371Z,99.30
2018-06-29T03:36:15.158Z,99.30
2018-06-29T03:38:45.552Z,99.20
2018-06-29T03:41:15.936Z,99.30
2018-06-29T03:43:48.353Z,99.50
2018-06-29T03:46:18.750Z,99.70
2018-06-29T03:49:09.509Z,99.50
2018-06-29T03:51:40.673Z,99.70
2018-06-29T03:54:11.041Z,99.70
2018-06-29T03:56:41.398Z,99.70
2018-06-29T03:59:12.545Z,99.90
2018-06-29T04:01:43.666Z,99.90
2018-06-29T04:04:14.044Z,99.90
2018-06-29T04:06:44.442Z,99.90
2018-06-29T04:09:14.818Z,99.90
2018-06-29T04:11:49.333Z,99.90
2018-06-29T04:14:22.494Z,99.90
2018-06-29T04:16:53.631Z,99.90
2018-06-29T04:19:25.727Z,99.90
2018-06-29T04:21:58.181Z,99.90
2018-06-29T04:24:29.584Z,99.90
2018-06-29T04:27:00.637Z,99.90
2018-06-29T04:29:31.035Z,99.90
2018-06-29T04:32:01.405Z,99.90
2018-06-29T04:34:32.548Z,99.90
2018-06-29T04:37:03.721Z,99.90
2018-06-29T04:39:34.088Z,99.90
2018-06-29T04:42:04.400Z,99.90
2018-06-29T04:44:36.846Z,99.90
2018-06-29T04:47:07.230Z,99.90
2018-06-29T04:49:37.543Z,99.90
2018-06-29T04:52:07.939Z,99.90
2018-06-29T04:54:43.375Z,99.90
2018-06-29T05:00:03.010Z,99.90
2018-06-29T05:02:33.402Z,99.90
2018-06-29T05:05:03.719Z,99.90
2018-06-29T05:07:34.080Z,99.90
2018-06-29T05:10:04.662Z,99.90
2018-06-29T05:12:35.043Z,99.90
2018-06-29T05:15:05.426Z,99.90
2018-06-29T05:17:35.824Z,99.90
2018-06-29T05:20:06.953Z,99.90
2018-06-29T05:22:37.329Z,99.90
2018-06-29T05:25:07.733Z,99.90
2018-06-29T05:27:38.886Z,99.90
2018-06-29T05:30:09.261Z,99.90
2018-06-29T05:32:39.675Z,99.90
2018-06-29T05:35:33.432Z,99.90
2018-06-29T05:38:03.843Z,99.90
2018-06-29T05:40:34.850Z,99.90
2018-06-29T05:43:05.163Z,99.90
2018-06-29T05:45:35.554Z,99.90
2018-06-29T05:48:05.934Z,99.90
2018-06-29T05:50:36.245Z,99.90
2018-06-29T05:53:06.709Z,99.90
2018-06-29T05:55:37.026Z,99.90
2018-06-29T05:58:08.172Z,99.90
2018-06-29T06:00:39.280Z,99.90
2018-06-29T06:03:09.656Z,99.90
2018-06-29T06:05:40.021Z,99.90
2018-06-29T06:08:10.430Z,99.90
2018-06-29T06:10:45.923Z,99.90
2018-06-29T06:13:17.094Z,99.90
2018-06-29T06:15:47.461Z,99.90
2018-06-29T06:18:39.340Z,99.90
2018-06-29T06:21:10.414Z,99.90
2018-06-29T06:23:42.839Z,99.90
2018-06-29T06:26:13.216Z,99.90
2018-06-29T06:28:45.870Z,99.90
2018-06-29T06:31:16.243Z,99.90
2018-06-29T06:33:46.821Z,99.90
2018-06-29T06:36:17.185Z,99.90
2018-06-29T06:38:47.558Z,99.90
2018-06-29T06:41:17.953Z,99.50
2018-06-29T06:43:48.337Z,99.40
2018-06-29T06:46:19.445Z,99.00
2018-06-29T06:48:49.845Z,99.10
2018-06-29T06:51:20.221Z,99.40
2018-06-29T06:53:51.369Z,98.80
2018-06-29T06:56:21.762Z,98.80
2018-06-29T06:58:52.139Z,98.60
2018-06-29T07:01:22.514Z,98.30
2018-06-29T07:03:52.923Z,97.90
2018-06-29T07:06:23.299Z,98.00
2018-06-29T07:08:54.439Z,98.20
2018-06-29T07:11:25.605Z,97.30
2018-06-29T07:13:55.982Z,97.30
2018-06-29T07:16:26.364Z,97.50
2018-06-29T07:18:56.752Z,97.70
2018-06-29T07:21:27.900Z,97.60
2018-06-29T07:23:59.043Z,98.20
2018-06-29T07:26:30.203Z,97.80
2018-06-29T07:29:00.582Z,97.80
2018-06-29T07:31:30.953Z,97.20
2018-06-29T07:34:02.120Z,96.70
2018-06-29T07:36:33.210Z,96.60
2018-06-29T07:39:03.579Z,96.60
2018-06-29T07:41:33.967Z,97.40
2018-06-29T07:44:04.341Z,96.70
2018-06-29T07:46:34.716Z,96.40
2018-06-29T07:49:07.097Z,95.90
2018-06-29T07:51:37.478Z,96.00
2018-06-29T07:54:26.968Z,95.50
2018-06-29T07:56:57.346Z,95.40
2018-06-29T07:59:28.477Z,96.30
2018-06-29T08:01:59.646Z,96.00
2018-06-29T08:04:30.002Z,95.80
2018-06-29T08:07:20.788Z,95.90
2018-06-29T08:09:51.172Z,96.20
2018-06-29T08:12:21.535Z,95.50
2018-06-29T08:14:51.932Z,96.40
2018-06-29T08:17:23.006Z,95.70
2018-06-29T08:19:53.385Z,95.70
2018-06-29T08:22:23.778Z,95.60
2018-06-29T08:25:04.394Z,95.50
2018-06-29T08:27:35.821Z,96.00
2018-06-29T08:30:06.389Z,95.20
2018-06-29T08:32:37.534Z,95.60
2018-06-29T08:35:08.687Z,95.40
2018-06-29T08:37:39.079Z,95.40
2018-06-29T08:40:10.227Z,95.10
2018-06-29T08:42:40.562Z,95.00
2018-06-29T08:45:11.708Z,94.40
2018-06-29T08:47:42.077Z,94.40
2018-06-29T08:50:19.733Z,94.20
2018-06-29T08:52:50.877Z,94.60
2018-06-29T08:55:22.231Z,94.90
2018-06-29T08:57:53.395Z,95.00
2018-06-29T09:00:23.767Z,95.00
2018-06-29T09:02:54.136Z,94.60
2018-06-29T09:05:24.527Z,94.70
2018-06-29T09:07:55.674Z,94.20
2018-06-29T09:10:25.991Z,94.40
2018-06-29T09:12:57.139Z,94.40
2018-06-29T09:18:11.736Z,93.90
2018-06-29T09:20:43.069Z,94.00
2018-06-29T09:23:13.439Z,93.90
2018-06-29T09:25:43.829Z,93.50
2018-06-29T09:28:14.960Z,94.00
2018-06-29T09:30:45.323Z,93.90
2018-06-29T09:33:15.723Z,93.70
2018-06-29T09:35:46.100Z,93.90
2018-06-29T09:38:19.478Z,93.50
2018-06-29T09:40:49.878Z,93.20
2018-06-29T09:43:20.255Z,93.30
2018-06-29T09:46:09.756Z,93.40
2018-06-29T09:48:40.159Z,93.40
2018-06-29T09:51:11.475Z,93.50
2018-06-29T09:53:41.868Z,93.50
2018-06-29T09:56:14.289Z,93.40
2018-06-29T09:58:44.663Z,93.60
2018-06-29T10:01:15.140Z,93.10
2018-06-29T10:03:51.563Z,93.40
2018-06-29T10:06:22.008Z,92.90
2018-06-29T10:09:12.461Z,92.10
2018-06-29T10:12:02.220Z,92.10
2018-06-29T10:14:32.640Z,92.40
2018-06-29T10:17:02.960Z,92.60
2018-06-29T10:19:34.094Z,92.50
2018-06-29T10:22:04.474Z,92.70
2018-06-29T10:24:34.817Z,92.40
2018-06-29T10:27:05.148Z,92.90
2018-06-29T10:29:35.514Z,93.20
2018-06-29T10:32:05.895Z,92.70
2018-06-29T10:34:36.281Z,92.00
2018-06-29T10:37:10.753Z,92.80
2018-06-29T10:39:41.160Z,92.50
2018-06-29T10:42:11.531Z,92.00
2018-06-29T10:44:44.021Z,92.20
2018-06-29T10:47:15.115Z,91.90
2018-06-29T10:49:45.491Z,91.00
2018-06-29T10:52:15.813Z,90.20
2018-06-29T10:54:46.199Z,90.70
2018-06-29T10:57:17.335Z,90.60
2018-06-29T10:59:47.702Z,90.80
2018-06-29T11:02:18.089Z,91.00
2018-06-29T11:04:48.399Z,91.00
2018-06-29T11:07:18.770Z,88.20
2018-06-29T11:09:51.960Z,89.40
2018-06-29T11:12:23.095Z,90.00
2018-06-29T11:14:53.472Z,89.90
2018-06-29T11:17:45.980Z,89.00
2018-06-29T11:20:17.150Z,87.70
2018-06-29T11:22:49.568Z,87.70
2018-06-29T11:25:19.959Z,89.00
2018-06-29T11:28:10.464Z,86.80
2018-06-29T11:31:02.286Z,86.70
2018-06-29T11:33:39.815Z,85.10
2018-06-29T11:36:10.230Z,87.00
2018-06-29T11:38:40.619Z,83.00
2018-06-29T11:41:10.989Z,84.00
2018-06-29T11:43:41.334Z,86.30
2018-06-29T11:46:11.699Z,85.10
2018-06-29T11:48:42.129Z,83.80
2018-06-29T11:51:12.481Z,84.80
2018-06-29T11:53:42.859Z,83.90
2018-06-29T11:56:13.298Z,83.60
2018-06-29T11:58:43.632Z,83.10
2018-06-29T12:01:13.999Z,83.50
2018-06-29T12:03:44.312Z,83.80
2018-06-29T12:06:14.704Z,81.00
2018-06-29T12:08:45.087Z,82.90
2018-06-29T12:11:15.463Z,83.70
2018-06-29T12:13:46.888Z,83.30
2018-06-29T12:16:17.520Z,83.50
2018-06-29T12:18:49.316Z,83.80
2018-06-29T12:21:19.731Z,83.70
2018-06-29T12:23:50.102Z,83.70
2018-06-29T12:26:20.477Z,85.60
2018-06-29T12:28:50.871Z,83.30
2018-06-29T12:31:21.248Z,82.30
2018-06-29T12:34:11.015Z,82.60
2018-06-29T12:36:41.375Z,84.30
2018-06-29T12:39:11.699Z,83.40
2018-06-29T12:41:42.088Z,82.90
2018-06-29T12:46:59.625Z,82.90
2018-06-29T12:49:31.015Z,84.60
2018-06-29T12:52:01.411Z,84.20
2018-06-29T12:54:31.799Z,84.90
2018-06-29T12:57:02.897Z,87.20
2018-06-29T12:59:40.541Z,87.30
2018-06-29T13:02:11.664Z,87.80
2018-06-29T13:04:42.047Z,86.90
2018-06-29T13:07:12.430Z,86.70
2018-06-29T13:09:42.796Z,88.10
2018-06-29T13:12:13.177Z,88.50
2018-06-29T13:14:43.573Z,86.90
2018-06-29T13:17:35.097Z,89.30
2018-06-29T13:20:27.671Z,88.90
2018-06-29T13:22:58.042Z,88.90
2018-06-29T13:25:28.417Z,88.80
2018-06-29T13:27:58.811Z,87.60
2018-06-29T13:30:34.302Z,86.90
2018-06-29T13:33:04.705Z,86.70
2018-06-29T13:35:37.932Z,85.70
2018-06-29T13:38:09.076Z,85.60
2018-06-29T13:40:40.233Z,88.40
2018-06-29T13:43:11.372Z,87.50
2018-06-29T13:45:42.517Z,87.60
2018-06-29T13:48:13.655Z,88.60
2018-06-29T13:50:44.977Z,87.80
2018-06-29T13:53:15.352Z,87.70
2018-06-29T13:55:45.750Z,88.50
2018-06-29T13:58:16.881Z,88.00
2018-06-29T14:00:47.275Z,88.10
2018-06-29T14:03:17.647Z,90.00
2018-06-29T14:05:48.799Z,90.00
2018-06-29T14:08:19.936Z,88.80
2018-06-29T14:10:51.144Z,90.00
2018-06-29T14:13:23.320Z,88.60
2018-06-29T14:15:54.385Z,87.40
2018-06-29T14:18:24.796Z,87.00
2018-06-29T14:20:55.848Z,87.60
2018-06-29T14:23:26.300Z,86.90
2018-06-29T14:26:00.728Z,87.60
2018-06-29T14:28:32.067Z,86.30
2018-06-29T14:31:03.199Z,85.80
2018-06-29T14:33:34.674Z,85.80
2018-06-29T14:36:04.995Z,84.50
2018-06-29T14:38:36.139Z,87.20
2018-06-29T14:41:07.302Z,89.30
2018-06-29T14:43:38.633Z,89.20
2018-06-29T14:46:09.018Z,87.10
2018-06-29T14:48:39.693Z,88.40
2018-06-29T14:51:13.102Z,88.40
2018-06-29T14:53:44.242Z,88.00
2018-06-29T14:56:14.653Z,87.80
2018-06-29T14:58:45.779Z,88.60
2018-06-29T15:01:16.149Z,89.90
2018-06-29T15:03:46.565Z,88.10
2018-06-29T15:06:16.942Z,86.60
2018-06-29T15:08:47.512Z,85.70
2018-06-29T15:11:21.664Z,85.80
2018-06-29T15:13:52.034Z,85.80
2018-06-29T15:16:22.416Z,87.40
2018-06-29T15:18:52.833Z,87.30
2018-06-29T15:21:25.619Z,86.00
2018-06-29T15:23:55.987Z,84.60
2018-06-29T15:26:26.378Z,85.10
2018-06-29T15:28:57.772Z,86.10
2018-06-29T15:31:28.201Z,86.10
2018-06-29T15:34:00.602Z,85.70
2018-06-29T15:36:31.730Z,85.20
2018-06-29T15:39:02.110Z,85.10
2018-06-29T15:41:51.977Z,87.30
2018-06-29T15:44:22.349Z,85.60
2018-06-29T15:46:53.758Z,87.20
2018-06-29T15:49:28.244Z,85.50
2018-06-29T15:51:59.391Z,88.00
2018-06-29T15:54:30.518Z,87.30
2018-06-29T15:57:01.695Z,86.00
2018-06-29T15:59:32.063Z,85.70
2018-06-29T16:02:02.426Z,87.70
2018-06-29T16:04:32.819Z,86.60
2018-06-29T16:07:03.188Z,87.10
2018-06-29T16:09:34.321Z,86.80
2018-06-29T16:12:05.486Z,86.90
2018-06-29T16:14:36.603Z,88.50
2018-06-29T16:17:07.740Z,87.00
2018-06-29T16:19:38.063Z,86.90
2018-06-29T16:22:09.198Z,88.30
2018-06-29T16:24:39.578Z,86.80
2018-06-29T16:30:03.376Z,88.30
2018-06-29T16:32:33.763Z,89.50
2018-06-29T16:35:04.891Z,88.20
2018-06-29T16:37:35.336Z,88.10
2018-06-29T16:40:05.645Z,88.40
2018-06-29T16:42:36.011Z,89.00
2018-06-29T16:45:06.378Z,90.00
2018-06-29T16:47:36.763Z,90.40
2018-06-29T16:50:07.902Z,90.20
2018-06-29T16:52:38.451Z,89.90
2018-06-29T16:55:08.839Z,89.50
2018-06-29T16:57:39.915Z,90.00
2018-06-29T17:00:10.527Z,90.10
2018-06-29T17:02:44.129Z,89.50
2018-06-29T17:05:14.498Z,89.50
2018-06-29T17:07:44.808Z,90.10
2018-06-29T17:10:15.212Z,89.50
2018-06-29T17:12:45.577Z,89.50
2018-06-29T17:15:21.084Z,89.10
2018-06-29T17:17:56.298Z,90.80
2018-06-29T17:20:26.691Z,91.20
2018-06-29T17:23:16.426Z,90.30
2018-06-29T17:25:46.806Z,90.00
2018-06-29T17:28:17.185Z,90.40
2018-06-29T17:30:47.547Z,90.10
2018-06-29T17:33:32.045Z,90.00
2018-06-29T17:35:50.282Z,90.00
2018-06-29T17:38:20.650Z,90.30
2018-06-29T17:40:51.036Z,90.40
2018-06-29T17:43:21.401Z,91.20
2018-06-29T17:45:51.769Z,90.50
2018-06-29T17:48:22.165Z,90.90
2018-06-29T17:50:58.654Z,90.90
2018-06-29T17:53:35.373Z,91.10
2018-06-29T17:56:06.510Z,91.20
2018-06-29T17:58:37.639Z,91.00
2018-06-29T18:01:08.023Z,91.00
2018-06-29T18:03:41.458Z,91.50
2018-06-29T18:06:11.822Z,91.50
2018-06-29T18:08:42.225Z,91.40
2018-06-29T18:11:12.588Z,91.50
2018-06-29T18:13:42.959Z,91.30
2018-06-29T18:16:13.361Z,91.60
2018-06-29T18:18:46.822Z,90.70
2018-06-29T18:21:20.216Z,91.20
2018-06-29T18:23:51.347Z,91.20
2018-06-29T18:26:21.716Z,91.10
2018-06-29T18:28:52.107Z,91.70
2018-06-29T18:31:22.569Z,91.40
2018-06-29T18:34:11.979Z,91.30
2018-06-29T18:36:45.322Z,91.30
2018-06-29T18:39:15.607Z,91.30
2018-06-29T18:41:45.990Z,91.30
2018-06-29T18:44:21.472Z,91.30
2018-06-29T18:46:51.859Z,91.30
2018-06-29T18:49:22.234Z,91.50
2018-06-29T18:51:52.604Z,91.00
2018-06-29T18:54:22.994Z,91.50
2018-06-29T18:56:54.119Z,91.30
2018-06-29T18:59:25.504Z,91.30
2018-06-29T19:01:55.895Z,91.20
2018-06-29T19:04:26.258Z,91.50
2018-06-29T19:06:56.631Z,91.10
2018-06-29T19:09:46.403Z,90.60
2018-06-29T19:12:19.557Z,90.40
2018-06-29T19:14:49.927Z,90.60
2018-06-29T19:17:25.443Z,90.60
2018-06-29T19:19:55.816Z,90.70
2018-06-29T19:22:26.196Z,91.00
2018-06-29T19:24:56.666Z,91.10
2018-06-29T19:27:27.037Z,90.60
2018-06-29T19:29:59.766Z,91.00
2018-06-29T19:32:33.835Z,90.30
2018-06-29T19:35:04.214Z,90.80
2018-06-29T19:37:34.561Z,90.80
2018-06-29T19:40:04.951Z,90.80
2018-06-29T19:42:56.744Z,91.10
2018-06-29T19:45:27.130Z,91.10
2018-06-29T19:47:57.503Z,91.20
2018-06-29T19:53:12.630Z,91.20
2018-06-29T19:55:48.980Z,91.00
2018-06-29T19:58:24.422Z,91.40
2018-06-29T20:01:00.631Z,90.90
2018-06-29T20:03:31.012Z,90.70
2018-06-29T20:06:01.382Z,91.00
2018-06-29T20:08:34.568Z,90.90
2018-06-29T20:11:07.645Z,91.00
2018-06-29T20:13:37.989Z,90.30
2018-06-29T20:16:08.370Z,90.90
2018-06-29T20:18:42.866Z,91.20
2018-06-29T20:21:13.244Z,90.80
2018-06-29T20:23:43.602Z,90.70
2018-06-29T20:26:14.777Z,90.20
2018-06-29T20:28:45.384Z,90.10
2018-06-29T20:31:19.188Z,90.60
2018-06-29T20:33:49.577Z,90.60
2018-06-29T20:36:19.952Z,90.80
2018-06-29T20:38:50.496Z,91.00
2018-06-29T20:41:40.024Z,90.60
2018-06-29T20:44:10.404Z,91.00
2018-06-29T20:46:43.706Z,91.30
2018-06-29T20:49:15.133Z,90.50
2018-06-29T20:51:45.497Z,91.10
2018-06-29T20:54:15.808Z,91.00
2018-06-29T20:56:49.269Z,91.70
2018-06-29T20:59:20.410Z,92.00
2018-06-29T21:01:51.537Z,91.90
2018-06-29T21:04:21.863Z,91.90
2018-06-29T21:06:55.074Z,91.90
2018-06-29T21:09:26.203Z,91.00
2018-06-29T21:11:56.599Z,91.00
2018-06-29T21:14:47.372Z,91.50
2018-06-29T21:17:20.228Z,91.30
2018-06-29T21:19:51.370Z,91.30
2018-06-29T21:22:22.514Z,91.80
2018-06-29T21:24:53.683Z,91.70
2018-06-29T21:27:26.763Z,91.40
2018-06-29T21:29:58.113Z,90.90
2018-06-29T21:32:31.994Z,91.10
2018-06-29T21:35:02.303Z,91.20
2018-06-29T21:37:32.671Z,91.30
2018-06-29T21:40:03.830Z,90.80
2018-06-29T21:42:34.266Z,90.70
2018-06-29T21:45:04.646Z,91.10
2018-06-29T21:47:35.095Z,90.50
2018-06-29T21:50:06.172Z,90.90
2018-06-29T21:52:39.648Z,90.90
2018-06-29T21:55:10.709Z,91.20
2018-06-29T21:57:42.881Z,91.10
2018-06-29T22:00:13.274Z,91.20
2018-06-29T22:02:44.418Z,91.50
2018-06-29T22:05:16.575Z,92.20
2018-06-29T22:07:47.744Z,92.30
2018-06-29T22:10:18.132Z,92.30
2018-06-29T22:12:48.435Z,92.80
2018-06-29T22:15:18.836Z,93.10
2018-06-29T22:17:49.207Z,93.10
2018-06-29T22:20:19.587Z,93.50
2018-06-29T22:22:49.976Z,93.90
2018-06-29T22:25:21.117Z,94.60
2018-06-29T22:27:52.528Z,94.50
2018-06-29T22:30:22.844Z,94.60
2018-06-29T22:32:53.216Z,95.20
2018-06-29T22:35:23.593Z,95.40
2018-06-29T22:37:55.024Z,95.70
2018-06-29T22:40:25.338Z,95.90
2018-06-29T22:42:57.167Z,96.50
2018-06-29T22:45:27.568Z,96.50
2018-06-29T22:47:57.950Z,96.50
2018-06-29T22:50:29.022Z,97.00
2018-06-29T22:52:59.419Z,97.00
2018-06-29T22:55:30.562Z,97.20
2018-06-29T22:58:01.705Z,97.30
2018-06-29T23:00:32.873Z,97.40
2018-06-29T23:03:03.253Z,97.40
2018-06-29T23:05:33.626Z,97.70
2018-06-29T23:08:04.024Z,97.90
2018-06-29T23:10:36.183Z,97.70
2018-06-29T23:13:06.562Z,97.70
2018-06-29T23:15:36.947Z,98.00
2018-06-29T23:18:07.316Z,98.00
2018-06-29T23:20:43.841Z,97.90
2018-06-29T23:23:14.977Z,98.30
2018-06-29T23:25:46.115Z,98.20
2018-06-29T23:28:16.519Z,98.20
2018-06-29T23:30:46.900Z,98.50
2018-06-29T23:33:17.215Z,98.50
2018-06-29T23:35:48.329Z,98.50
2018-06-29T23:38:18.698Z,98.60
2018-06-29T23:40:49.009Z,98.80
2018-06-29T23:43:20.458Z,99.00
2018-06-29T23:45:51.612Z,99.10
2018-06-29T23:48:21.989Z,99.10
2018-06-29T23:50:52.384Z,98.90
2018-06-29T23:53:24.807Z,98.90
2018-06-29T23:55:55.185Z,99.00
2018-06-29T23:58:26.598Z,98.90
